Time;durP1;ratioP1;P1;durP2;ratioP2;P2;SDS_P1;SDS_P2;PMS_P1;PMS_P2;Temp;Humidity;BMP_temperature;BMP_pressure;BME280_temperature;BME280_humidity;BME280_pressure;Samples;Min_cycle;Max_cycle;Signal;HPM_P1;HPM_P2
2022/10/26 00:01:40;;;;;;;6.75;4.45;;;;;;;11.43;100.00;101417.00;5028113;28;20030;-66
2022/10/26 00:04:05;;;;;;;9.60;4.88;;;;;;;11.44;100.00;101410.84;5029620;28;20107;-65
2022/10/26 00:06:31;;;;;;;12.00;5.22;;;;;;;11.32;100.00;101412.91;5029541;28;20083;-66
2022/10/26 00:08:56;;;;;;;8.07;4.63;;;;;;;11.37;100.00;101404.84;5029477;28;20054;-66
2022/10/26 00:11:22;;;;;;;11.55;5.13;;;;;;;11.35;100.00;101404.06;5029912;28;20037;-65
2022/10/26 00:13:48;;;;;;;10.75;4.72;;;;;;;11.35;100.00;101389.06;5029844;28;20024;-65
2022/10/26 00:16:21;;;;;;;10.15;4.55;;;;;;;11.36;100.00;101389.94;5028894;28;20021;-65
2022/10/26 00:18:47;;;;;;;10.63;4.65;;;;;;;11.37;100.00;101387.25;5029954;28;20112;-66
2022/10/26 00:21:12;;;;;;;10.32;4.32;;;;;;;11.30;100.00;101380.44;5028790;28;20078;-66
2022/10/26 00:23:38;;;;;;;13.15;4.60;;;;;;;11.29;100.00;101381.31;5028860;28;20088;-61
2022/10/26 00:26:04;;;;;;;14.05;5.55;;;;;;;11.23;100.00;101376.25;5029070;28;20036;-63
2022/10/26 00:28:30;;;;;;;10.10;5.10;;;;;;;11.24;100.00;101370.94;5029448;28;20018;-64
2022/10/26 00:30:59;;;;;;;10.43;4.22;;;;;;;11.23;100.00;101377.09;5028507;28;20056;-61
2022/10/26 00:33:26;;;;;;;9.05;4.60;;;;;;;11.22;100.00;101378.00;5029201;28;20044;-65
2022/10/26 00:35:53;;;;;;;10.65;5.13;;;;;;;11.17;100.00;101376.41;5029408;28;20475;-65
2022/10/26 00:38:18;;;;;;;11.27;5.50;;;;;;;11.11;100.00;101369.53;5011444;28;20032;-67
2022/10/26 00:40:43;;;;;;;9.55;5.35;;;;;;;11.08;100.00;101370.47;5029284;28;20029;-62
2022/10/26 00:43:14;;;;;;;10.77;5.82;;;;;;;11.04;100.00;101371.47;5028176;28;20030;-65
2022/10/26 00:45:41;;;;;;;12.90;5.90;;;;;;;11.05;100.00;101372.34;5028361;28;20029;-65
2022/10/26 00:48:30;;;;;;;10.73;5.78;;;;;;;11.03;100.00;101371.50;5028574;28;20036;-65
2022/10/26 00:50:56;;;;;;;;;;;;;;;11.01;100.00;101363.63;5028293;28;20164;-62
2022/10/26 00:53:21;;;;;;;11.68;5.65;;;;;;;11.07;100.00;101352.91;5011397;28;19913;-65
2022/10/26 00:55:48;;;;;;;12.05;5.95;;;;;;;11.09;100.00;101358.16;5011374;28;20081;-66
2022/10/26 00:58:14;;;;;;;10.95;5.40;;;;;;;11.09;100.00;101356.38;5028791;28;20033;-64
2022/10/26 01:00:40;;;;;;;9.00;5.70;;;;;;;11.09;100.00;101366.06;5028551;28;20048;-65
2022/10/26 01:03:07;;;;;;;12.23;5.40;;;;;;;11.12;100.00;101364.22;5009876;28;20115;-65
2022/10/26 01:05:34;;;;;;;11.90;6.03;;;;;;;11.18;100.00;101364.94;5028771;28;20068;-65
2022/10/26 01:07:59;;;;;;;15.30;6.60;;;;;;;11.15;100.00;101362.38;5010601;28;20821;-66
2022/10/26 01:10:26;;;;;;;11.95;5.72;;;;;;;11.16;100.00;101357.06;5010611;28;20073;-60
2022/10/26 01:12:52;;;;;;;8.50;6.25;;;;;;;11.12;100.00;101345.75;5028444;28;20592;-66
2022/10/26 01:15:17;;;;;;;11.25;6.15;;;;;;;11.14;100.00;101344.84;5120910;22;20702;-63
2022/10/26 01:18:10;;;;;;;9.27;5.45;;;;;;;11.15;100.00;101343.94;5050723;28;20028;-66
2022/10/26 01:21:08;;;;;;;9.77;5.97;;;;;;;11.15;100.00;101343.94;5068270;28;20394;-66
2022/10/26 01:24:04;;;;;;;14.93;6.10;;;;;;;11.16;100.00;101337.72;5050403;28;20028;-65
2022/10/26 01:26:32;;;;;;;9.93;6.35;;;;;;;11.16;100.00;101341.25;5067657;28;20036;-64
2022/10/26 01:29:06;;;;;;;10.98;6.80;;;;;;;11.08;100.00;101336.19;5068046;28;20478;-65
2022/10/26 01:31:56;;;;;;;14.02;6.60;;;;;;;11.13;100.00;101341.34;5067095;28;20112;-66
2022/10/26 01:34:40;;;;;;;11.88;6.50;;;;;;;11.08;100.00;101330.91;5053304;28;20051;-63
2022/10/26 01:37:08;;;;;;;10.02;6.28;;;;;;;11.09;100.00;101322.09;5049860;28;20032;-65
2022/10/26 01:39:51;;;;;;;16.48;6.18;;;;;;;11.11;100.00;101317.63;5050514;28;20020;-64
2022/10/26 01:42:17;;;;;;;18.75;7.45;;;;;;;11.12;100.00;101306.19;5049571;28;20050;-66
2022/10/26 01:44:47;;;;;;;13.32;6.13;;;;;;;11.11;100.00;101306.25;5050131;28;20393;-65
2022/10/26 01:47:14;;;;;;;12.00;6.85;;;;;;;11.10;100.00;101305.38;5049104;28;20074;-66
2022/10/26 01:49:47;;;;;;;15.68;6.57;;;;;;;11.16;100.00;101321.91;5068207;28;20035;-67
2022/10/26 01:52:12;;;;;;;12.68;6.43;;;;;;;11.18;100.00;101320.97;5048687;28;20086;-66
2022/10/26 01:54:38;;;;;;;14.57;6.90;;;;;;;11.23;100.00;101315.56;5068421;28;20024;-66
2022/10/26 01:57:06;;;;;;;14.25;6.53;;;;;;;11.30;100.00;101317.13;5067591;28;20031;-66
2022/10/26 01:59:47;;;;;;;10.80;5.70;;;;;;;11.29;100.00;101314.53;5050740;28;20082;-66
2022/10/26 02:02:19;;;;;;;16.77;6.40;;;;;;;11.29;100.00;101298.69;5066171;28;20024;-66
2022/10/26 02:05:00;;;;;;;9.45;5.95;;;;;;;11.32;100.00;101291.53;5067325;28;20033;-62
2022/10/26 02:07:39;;;;;;;10.18;6.25;;;;;;;11.33;100.00;101290.66;5066944;28;20032;-66
2022/10/26 02:10:30;;;;;;;;;;;;;;;11.44;100.00;101282.38;5050043;28;20097;-64
2022/10/26 02:12:58;;;;;;;10.85;5.40;;;;;;;11.54;100.00;101288.28;5042504;28;19916;-65
2022/10/26 02:15:38;;;;;;;12.25;5.65;;;;;;;11.55;100.00;101282.06;5048019;28;20048;-65
2022/10/26 02:18:12;;;;;;;12.48;6.47;;;;;;;11.58;100.00;101281.97;5048905;28;20032;-63
2022/10/26 02:20:41;;;;;;;13.70;5.80;;;;;;;11.59;100.00;101286.34;5049244;28;20020;-64
2022/10/26 02:23:08;;;;;;;13.90;6.10;;;;;;;11.56;100.00;101291.69;5049072;28;20039;-64
2022/10/26 02:25:37;;;;;;;10.77;6.03;;;;;;;11.62;100.00;101296.78;5067561;28;20030;-65
2022/10/26 02:28:11;;;;;;;9.95;5.63;;;;;;;11.67;100.00;101287.88;5067474;28;20402;-63
2022/10/26 02:30:36;;;;;;;16.13;5.97;;;;;;;11.67;100.00;101293.13;5048548;28;20490;-60
2022/10/26 02:33:03;;;;;;;8.82;6.10;;;;;;;11.63;100.00;101290.59;5065304;28;20021;-66
2022/10/26 02:35:31;;;;;;;11.82;5.85;;;;;;;11.65;100.00;101285.28;5049253;28;20128;-63
2022/10/26 02:37:59;;;;;;;9.45;6.93;;;;;;;11.63;100.00;101287.13;5047718;28;20291;-67
2022/10/26 02:40:26;;;;;;;13.35;6.85;;;;;;;11.57;100.00;101277.63;5067160;28;20104;-64
2022/10/26 02:42:53;;;;;;;13.10;6.78;;;;;;;11.51;100.00;101277.81;5065585;28;20032;-65
2022/10/26 02:45:25;;;;;;;12.07;6.53;;;;;;;11.54;100.00;101282.13;5031695;28;20107;-66
2022/10/26 02:47:50;;;;;;;13.95;6.53;;;;;;;11.52;100.00;101273.38;5048570;28;20127;-65
2022/10/26 02:50:17;;;;;;;14.88;6.95;;;;;;;11.48;100.00;101276.13;5048883;28;20104;-67
2022/10/26 02:53:05;;;;;;;14.13;6.85;;;;;;;11.49;100.00;101279.63;5049141;28;20074;-65
2022/10/26 02:55:39;;;;;;;12.70;7.10;;;;;;;11.50;100.00;101282.19;5066318;28;20055;-64
2022/10/26 02:58:10;;;;;;;12.52;7.50;;;;;;;11.58;100.00;101284.63;5032182;28;20116;-62
2022/10/26 03:00:35;;;;;;;15.52;6.97;;;;;;;11.60;100.00;101280.16;5047385;28;20028;-65
2022/10/26 03:03:02;;;;;;;12.98;6.30;;;;;;;11.62;100.00;101280.97;5048855;28;20025;-64
2022/10/26 03:05:31;;;;;;;10.02;6.72;;;;;;;11.67;100.00;101283.47;5049122;28;20043;-65
2022/10/26 03:07:58;;;;;;;;;;;;;;;11.69;100.00;101275.50;5049442;28;20025;-67
2022/10/26 03:10:23;;;;;;;10.25;6.30;;;;;;;11.65;100.00;101269.44;5066644;28;20465;-66
2022/10/26 03:12:48;;;;;;;16.20;6.95;;;;;;;11.69;100.00;101270.22;5066667;28;20024;-65
2022/10/26 03:15:14;;;;;;;11.70;6.57;;;;;;;11.71;100.00;101265.75;5067932;28;20049;-62
2022/10/26 03:17:40;;;;;;;14.13;6.40;;;;;;;11.74;100.00;101263.88;5070616;28;20650;-65
2022/10/26 03:20:06;;;;;;;11.93;6.68;;;;;;;11.65;100.00;101258.88;5069428;28;20078;-65
2022/10/26 03:22:31;;;;;;;10.15;6.55;;;;;;;11.61;100.00;101260.75;5052405;28;20032;-63
2022/10/26 03:24:56;;;;;;;12.68;6.00;;;;;;;11.59;100.00;101261.72;5051315;28;20025;-66
2022/10/26 03:27:22;;;;;;;11.75;6.45;;;;;;;11.52;100.00;101261.03;5069938;28;20674;-66
2022/10/26 03:29:47;;;;;;;17.08;7.05;;;;;;;11.48;100.00;101264.69;5070020;28;20056;-63
2022/10/26 03:32:12;;;;;;;18.63;6.63;;;;;;;11.50;100.00;101266.38;5069132;28;20017;-65
2022/10/26 03:34:38;;;;;;;16.35;7.20;;;;;;;11.53;100.00;101264.56;5069737;28;20024;-66
2022/10/26 03:37:03;;;;;;;17.92;6.78;;;;;;;11.46;100.00;101256.81;5051656;28;20150;-67
2022/10/26 03:39:28;;;;;;;12.63;6.30;;;;;;;11.46;100.00;101254.19;5069976;28;20082;-62
2022/10/26 03:41:54;;;;;;;14.63;6.32;;;;;;;11.53;100.00;101265.41;5068733;28;20086;-65
2022/10/26 03:44:20;;;;;;;12.00;6.47;;;;;;;11.58;100.00;101252.94;5069149;28;20142;-65
2022/10/26 03:46:45;;;;;;;9.13;5.97;;;;;;;11.67;100.00;101250.91;5068396;28;20050;-65
2022/10/26 03:52:32;;;;;;;14.15;6.38;;;;;;;11.69;100.00;101243.81;5061305;28;20047;-63
2022/10/26 03:54:57;;;;;;;15.38;6.32;;;;;;;11.63;100.00;101251.00;5054152;28;20025;-65
2022/10/26 03:57:23;;;;;;;7.80;5.93;;;;;;;11.68;100.00;101253.50;5049249;28;20032;-67
2022/10/26 03:59:48;;;;;;;11.43;5.80;;;;;;;11.69;100.00;101246.47;5048809;28;20025;-66
2022/10/26 04:02:14;;;;;;;8.23;5.47;;;;;;;11.73;100.00;101248.06;5062302;28;20035;-63
2022/10/26 04:04:39;;;;;;;9.95;5.80;;;;;;;11.72;100.00;101241.09;5069678;28;20048;-66
2022/10/26 04:07:04;;;;;;;14.77;6.40;;;;;;;11.69;100.00;101246.47;5065235;28;20040;-64
2022/10/26 04:09:30;;;;;;;13.88;5.78;;;;;;;11.67;100.00;101250.91;5070440;28;20024;-63
2022/10/26 04:11:55;;;;;;;15.65;6.50;;;;;;;11.72;100.00;101249.00;5070358;28;20100;-65
2022/10/26 04:14:20;;;;;;;13.32;6.55;;;;;;;11.70;100.00;101250.81;5066239;28;20048;-66
2022/10/26 04:16:46;;;;;;;10.07;5.97;;;;;;;11.73;100.00;101241.03;5068621;28;20028;-65
2022/10/26 04:19:11;;;;;;;13.63;5.78;;;;;;;11.74;100.00;101241.91;5066724;28;20101;-62
2022/10/26 04:21:36;;;;;;;7.75;5.35;;;;;;;11.78;100.00;101237.38;5063719;28;20099;-64
2022/10/26 04:24:02;;;;;;;14.80;6.40;;;;;;;11.77;100.00;101240.94;5069487;28;20374;-66
2022/10/26 04:26:27;;;;;;;11.88;6.05;;;;;;;11.79;100.00;101250.53;5068867;28;20538;-67
2022/10/26 04:28:52;;;;;;;11.48;5.65;;;;;;;11.80;100.00;101241.69;5068481;28;20713;-67
2022/10/26 04:31:18;;;;;;;8.48;5.20;;;;;;;11.83;100.00;101248.66;5068801;28;20470;-64
2022/10/26 04:33:43;;;;;;;11.13;5.85;;;;;;;11.82;100.00;101252.19;5051298;28;20139;-66
2022/10/26 04:36:09;;;;;;;10.50;5.60;;;;;;;11.85;100.00;101252.97;5069071;28;20036;-64
2022/10/26 04:38:35;;;;;;;11.85;5.32;;;;;;;11.88;100.00;101250.22;5069655;28;20016;-66
2022/10/26 04:41:00;;;;;;;9.73;5.60;;;;;;;11.89;100.00;101245.78;5065300;28;20467;-65
2022/10/26 04:43:25;;;;;;;11.45;5.82;;;;;;;11.90;100.00;101244.91;5050542;28;20025;-66
2022/10/26 04:45:57;;;;;;;9.15;5.05;;;;;;;11.93;100.00;101252.72;5068384;28;20017;-62
2022/10/26 04:48:23;;;;;;;12.43;5.65;;;;;;;11.91;100.00;101254.53;5070091;28;20031;-65
2022/10/26 04:50:48;;;;;;;11.93;6.03;;;;;;;11.90;100.00;101250.19;5069426;28;20021;-66
2022/10/26 04:53:14;;;;;;;8.60;5.95;;;;;;;11.94;100.00;101250.94;5069579;28;20028;-64
2022/10/26 04:55:39;;;;;;;11.98;6.07;;;;;;;11.98;100.00;101247.28;5070511;28;20181;-67
2022/10/26 04:58:05;;;;;;;8.88;5.68;;;;;;;11.97;100.00;101243.78;5069956;28;20394;-65
2022/10/26 05:00:31;;;;;;;10.65;5.22;;;;;;;11.99;100.00;101247.25;5068679;28;20059;-66
2022/10/26 05:03:01;;;;;;;10.15;6.25;;;;;;;11.98;100.00;101249.94;5069375;28;20635;-65
2022/10/26 05:05:26;;;;;;;17.20;6.00;;;;;;;12.04;100.00;101243.59;5067465;28;20363;-64
2022/10/26 05:07:55;;;;;;;11.90;5.32;;;;;;;12.08;100.00;101246.09;5051908;28;20090;-66
2022/10/26 05:10:20;;;;;;;9.05;5.55;;;;;;;12.08;100.00;101248.75;5069831;28;20028;-66
2022/10/26 05:12:53;;;;;;;15.23;6.28;;;;;;;12.10;100.00;101244.25;5055533;28;20545;-66
2022/10/26 05:15:18;;;;;;;14.52;5.80;;;;;;;12.13;100.00;101249.44;5048718;28;20041;-66
2022/10/26 05:17:43;;;;;;;12.45;4.63;;;;;;;12.17;100.00;101239.63;5050049;28;20032;-63
2022/10/26 05:20:12;;;;;;;16.40;5.47;;;;;;;12.18;100.00;101238.72;5049436;28;20040;-66
2022/10/26 05:22:38;;;;;;;15.85;5.85;;;;;;;12.26;100.00;101238.47;5050074;28;20108;-66
2022/10/26 05:25:03;;;;;;;10.52;5.50;;;;;;;12.30;100.00;101241.84;5031832;28;20092;-66
2022/10/26 05:27:29;;;;;;;10.63;5.82;;;;;;;12.34;100.00;101235.56;5049744;28;20467;-67
2022/10/26 05:29:54;;;;;;;12.73;5.75;;;;;;;12.30;100.00;101237.44;5043483;28;20115;-68
2022/10/26 05:32:19;;;;;;;19.48;5.63;;;;;;;12.29;100.00;101241.00;5069463;28;20512;-66
2022/10/26 05:34:46;;;;;;;9.50;5.43;;;;;;;12.30;100.00;101245.34;5068973;28;20029;-64
2022/10/26 05:37:11;;;;;;;11.30;5.05;;;;;;;12.33;100.00;101245.25;5068018;28;20032;-65
2022/10/26 05:39:36;;;;;;;8.85;5.75;;;;;;;12.32;100.00;101254.09;5069111;28;20460;-65
2022/10/26 05:42:02;;;;;;;15.20;5.95;;;;;;;12.34;100.00;101241.69;5069077;28;20442;-64
2022/10/26 05:44:27;;;;;;;12.70;5.45;;;;;;;12.32;100.00;101240.91;5068921;28;20028;-66
2022/10/26 05:46:52;;;;;;;11.32;5.20;;;;;;;12.40;100.00;101237.94;5067617;28;20064;-66
2022/10/26 05:49:18;;;;;;;8.60;5.20;;;;;;;12.44;100.00;101236.09;5068931;28;20031;-66
2022/10/26 05:51:43;;;;;;;11.13;5.20;;;;;;;12.41;100.00;101241.47;5069146;28;20020;-65
2022/10/26 05:54:08;;;;;;;11.82;5.07;;;;;;;12.35;100.00;101232.88;5067449;28;20029;-66
2022/10/26 05:56:36;;;;;;;8.10;5.07;;;;;;;12.36;100.00;101237.22;5068343;28;20032;-65
2022/10/26 05:59:02;;;;;;;11.05;5.00;;;;;;;12.29;100.00;101233.06;5045045;28;20070;-67
2022/10/26 06:01:36;;;;;;;13.05;4.88;;;;;;;12.28;100.00;101235.75;5055761;28;20021;-65
2022/10/26 06:04:19;;;;;;;12.57;5.40;;;;;;;12.27;100.00;101234.88;5066502;28;20025;-66
2022/10/26 06:06:46;;;;;;;12.13;4.47;;;;;;;12.25;100.00;101231.44;5066295;28;20021;-64
2022/10/26 06:09:12;;;;;;;11.43;5.50;;;;;;;12.23;100.00;101228.00;5041636;28;20074;-65
2022/10/26 06:11:38;;;;;;;17.63;5.22;;;;;;;12.25;100.00;101226.13;5057341;28;20111;-64
2022/10/26 06:14:04;;;;;;;20.33;5.70;;;;;;;12.24;100.00;101237.63;5059225;28;20123;-63
2022/10/26 06:16:37;;;;;;;12.35;5.30;;;;;;;12.29;100.00;101250.69;5063773;28;20034;-66
2022/10/26 06:19:21;;;;;;;9.45;4.85;;;;;;;12.29;100.00;101248.06;5054286;28;20475;-63
2022/10/26 06:21:58;;;;;;;12.82;4.63;;;;;;;12.29;100.00;101248.94;5061488;28;20075;-65
2022/10/26 06:24:42;;;;;;;12.43;5.00;;;;;;;12.32;100.00;101254.09;5059204;28;20213;-65
2022/10/26 06:27:16;;;;;;;13.63;5.40;;;;;;;12.28;100.00;101244.53;5041262;28;20147;-64
2022/10/26 06:29:44;;;;;;;8.20;4.70;;;;;;;12.26;100.00;101243.75;5055173;28;20036;-64
2022/10/26 06:32:10;;;;;;;16.95;4.72;;;;;;;12.32;100.00;101245.31;5057097;28;20025;-65
2022/10/26 06:34:37;;;;;;;10.00;4.10;;;;;;;12.29;100.00;101241.00;5059368;28;20377;-66
2022/10/26 06:37:02;;;;;;;9.35;4.30;;;;;;;12.26;100.00;101247.22;5057609;28;20029;-65
2022/10/26 06:39:31;;;;;;;13.48;5.30;;;;;;;12.24;100.00;101241.16;5044202;28;20471;-65
2022/10/26 06:41:56;;;;;;;7.47;4.40;;;;;;;12.21;100.00;101245.66;5039332;28;20523;-63
2022/10/26 06:44:22;;;;;;;10.43;4.80;;;;;;;12.26;100.00;101256.94;5065977;28;20138;-64
2022/10/26 06:47:30;;;;;;;7.18;4.25;;;;;;;12.29;100.00;101248.94;5048689;28;20420;-65
2022/10/26 06:50:25;;;;;;;8.45;4.63;;;;;;;12.29;100.00;101248.06;5067289;28;20028;-64
2022/10/26 06:53:00;;;;;;;15.32;4.28;;;;;;;12.26;100.00;101259.59;5052136;28;20044;-66
2022/10/26 06:55:26;;;;;;;7.88;4.35;;;;;;;12.28;100.00;101263.03;5044139;28;20063;-63
2022/10/26 06:57:52;;;;;;;10.20;4.13;;;;;;;12.28;100.00;101263.03;5042089;28;20098;-65
2022/10/26 07:00:22;;;;;;;7.38;4.22;;;;;;;12.25;100.00;101273.69;5042706;28;20036;-64
2022/10/26 07:02:48;;;;;;;11.05;4.78;;;;;;;12.27;100.00;101282.44;5062962;28;20695;-67
2022/10/26 07:05:13;;;;;;;9.63;5.18;;;;;;;12.21;100.00;101267.69;5062756;28;20024;-62
2022/10/26 07:07:47;;;;;;;7.95;3.85;;;;;;;12.27;100.00;101258.66;5058874;28;20070;-67
2022/10/26 07:10:14;;;;;;;7.03;4.05;;;;;;;12.28;100.00;101263.03;5062211;28;20039;-68
2022/10/26 07:12:39;;;;;;;8.40;4.30;;;;;;;12.27;100.00;101266.59;5070994;28;20364;-67
2022/10/26 07:15:05;;;;;;;11.25;4.95;;;;;;;12.28;100.00;101263.03;5069762;28;20105;-65
2022/10/26 07:17:31;;;;;;;10.43;4.75;;;;;;;12.31;100.00;101256.78;5071022;28;20749;-65
2022/10/26 07:19:56;;;;;;;9.52;4.25;;;;;;;12.38;100.00;101263.59;5070805;28;20113;-66
2022/10/26 07:22:22;;;;;;;9.60;4.70;;;;;;;12.47;100.00;101283.56;5070360;28;20082;-64
2022/10/26 07:24:50;;;;;;;7.65;4.63;;;;;;;12.52;100.00;101294.81;5070718;28;20150;-64
2022/10/26 07:27:18;;;;;;;12.45;4.90;;;;;;;12.51;100.00;101306.31;5068387;28;20398;-66
2022/10/26 07:29:44;;;;;;;12.35;4.40;;;;;;;12.65;100.00;101300.56;5049798;28;20518;-66
2022/10/26 07:32:09;;;;;;;6.28;3.75;;;;;;;12.68;100.00;101296.94;5059594;28;20112;-64
2022/10/26 07:34:35;;;;;;;9.95;5.00;;;;;;;12.64;100.00;101297.03;5053067;28;20081;-65
2022/10/26 07:37:00;;;;;;;10.75;4.78;;;;;;;12.66;100.00;101298.75;5062319;28;20022;-64
2022/10/26 07:39:26;;;;;;;9.65;4.35;;;;;;;12.77;100.00;101307.19;5052318;28;20116;-66
2022/10/26 07:41:51;;;;;;;12.77;5.07;;;;;;;12.79;100.00;101315.91;5049888;28;20021;-65
2022/10/26 07:44:17;;;;;;;13.02;4.47;;;;;;;12.85;100.00;101318.34;5049674;28;20028;-63
2022/10/26 07:46:42;;;;;;;7.70;4.38;;;;;;;12.92;100.00;101326.06;5049955;28;20494;-63
2022/10/26 07:49:07;;;;;;;8.32;4.25;;;;;;;12.99;100.00;101322.25;5049781;28;20025;-65
2022/10/26 07:51:33;;;;;;;7.88;4.47;;;;;;;13.04;100.00;101325.63;5056369;28;20024;-64
2022/10/26 07:53:58;;;;;;;9.35;4.55;;;;;;;13.13;100.00;101322.63;5069893;28;20051;-65
2022/10/26 07:56:23;;;;;;;6.88;4.47;;;;;;;13.16;100.00;101319.00;5069285;28;20141;-65
2022/10/26 07:58:51;;;;;;;6.47;4.00;;;;;;;13.28;100.00;101328.28;5069806;28;20078;-67
2022/10/26 08:01:17;;;;;;;9.10;4.30;;;;;;;13.30;100.00;101333.50;5049980;28;20051;-66
2022/10/26 08:03:42;;;;;;;7.28;4.00;;;;;;;13.44;100.00;101346.22;5068824;28;20169;-66
2022/10/26 08:06:09;;;;;;;7.28;4.50;;;;;;;13.52;100.00;101346.81;5067338;28;20028;-65
2022/10/26 08:08:34;;;;;;;11.93;3.50;;;;;;;13.60;100.00;101341.22;5068711;28;20052;-66
2022/10/26 08:11:00;;;;;;;8.70;4.05;;;;;;;13.69;100.00;101342.66;5068769;28;20067;-65
2022/10/26 08:13:25;;;;;;;8.00;4.10;;;;;;;13.84;100.00;101342.03;5049535;28;20123;-68
2022/10/26 08:15:58;;;;;;;10.23;3.58;;;;;;;13.93;100.00;101332.88;5049667;28;20033;-67
2022/10/26 08:18:24;;;;;;;8.32;3.72;;;;;;;13.99;100.00;101342.34;5066236;28;20760;-66
2022/10/26 08:20:49;;;;;;;11.63;3.80;;;;;;;14.10;100.00;101342.78;5066733;28;20048;-66
2022/10/26 08:23:15;;;;;;;7.95;3.80;;;;;;;14.17;100.00;101330.13;5067331;28;20048;-67
2022/10/26 08:25:40;;;;;;;5.88;3.38;;;;;;;14.25;100.00;101333.34;5066846;28;20117;-65
2022/10/26 08:28:05;;;;;;;7.28;3.60;;;;;;;14.39;100.00;101335.41;5067916;28;20070;-65
2022/10/26 08:30:31;;;;;;;6.57;3.13;;;;;;;14.44;100.00;101334.34;5066514;28;20048;-65
2022/10/26 08:33:01;;;;;;;13.90;3.53;;;;;;;14.52;100.00;101332.25;5067865;28;20029;-65
2022/10/26 08:35:27;;;;;;;10.63;3.65;;;;;;;14.56;100.00;101325.88;5067634;28;20216;-66
2022/10/26 08:37:52;;;;;;;7.88;3.30;;;;;;;14.74;100.00;101328.66;5049875;28;20047;-66
2022/10/26 08:40:19;;;;;;;10.05;3.70;;;;;;;14.82;100.00;101333.66;5067666;28;20017;-65
2022/10/26 08:42:48;;;;;;;8.68;3.22;;;;;;;15.00;100.00;101342.59;5049980;28;20021;-65
2022/10/26 08:45:23;;;;;;;8.00;3.95;;;;;;;15.15;100.00;101346.34;5048559;28;20371;-66
2022/10/26 08:47:52;;;;;;;6.72;2.83;;;;;;;15.29;100.00;101348.38;5050131;28;20524;-66
2022/10/26 08:50:25;;;;;;;5.05;3.30;;;;;;;15.51;100.00;101355.34;5048450;28;20024;-68
2022/10/26 08:52:54;;;;;;;8.70;2.90;;;;;;;15.72;100.00;101361.47;5067219;28;20486;-64
2022/10/26 08:55:24;;;;;;;9.82;2.80;;;;;;;15.82;100.00;101358.34;5067426;28;20549;-65
2022/10/26 08:57:50;;;;;;;10.63;2.70;;;;;;;15.97;100.00;101370.06;5049640;28;20567;-67
2022/10/26 09:00:23;;;;;;;8.43;2.65;;;;;;;16.12;100.00;101363.16;5067229;28;20021;-64
2022/10/26 09:02:50;;;;;;;8.55;2.58;;;;;;;16.23;100.00;101366.16;5067256;28;20123;-66
2022/10/26 09:05:18;;;;;;;4.07;2.45;;;;;;;16.34;100.00;101370.91;5049496;28;20033;-68
2022/10/26 09:07:46;;;;;;;16.25;2.75;;;;;;;16.34;100.00;101362.94;5049193;28;20029;-63
2022/10/26 09:10:26;;;;;;;8.60;3.00;;;;;;;16.38;100.00;101369.81;5048370;28;20033;-64
2022/10/26 09:12:58;;;;;;;5.13;2.75;;;;;;;16.43;100.00;101366.94;5065818;28;20123;-64
2022/10/26 09:15:32;;;;;;;9.57;3.00;;;;;;;16.49;100.00;101369.28;5047205;28;20079;-64
2022/10/26 09:18:18;;;;;;;5.60;2.55;;;;;;;16.59;100.00;101371.50;5049718;28;20131;-64
2022/10/26 09:21:05;;;;;;;7.18;2.70;;;;;;;16.68;100.00;101385.16;5066190;28;20297;-66
2022/10/26 09:23:49;;;;;;;7.93;2.35;;;;;;;16.62;100.00;101381.97;5067238;28;20040;-65
2022/10/26 09:26:25;;;;;;;8.70;3.28;;;;;;;16.66;100.00;101386.19;5066620;28;20035;-63
2022/10/26 09:28:51;;;;;;;9.30;3.47;;;;;;;16.71;100.00;101388.63;5048855;28;20036;-65
2022/10/26 09:31:16;;;;;;;11.35;2.30;;;;;;;16.71;100.00;101386.84;5067300;28;20031;-64
2022/10/26 09:33:42;;;;;;;7.07;2.30;;;;;;;16.75;100.00;101392.84;5067591;28;20020;-64
2022/10/26 09:36:11;;;;;;;7.97;2.75;;;;;;;16.82;100.00;101388.91;5068798;28;20088;-65
2022/10/26 09:38:50;;;;;;;9.15;2.50;;;;;;;16.76;100.00;101400.75;5050809;28;20418;-66
2022/10/26 09:41:30;;;;;;;6.78;2.33;;;;;;;16.91;100.00;101392.91;5049677;28;20122;-63
2022/10/26 09:44:04;;;;;;;7.75;2.47;;;;;;;16.94;100.00;101403.38;5066808;28;20032;-62
2022/10/26 09:46:42;;;;;;;5.85;2.35;;;;;;;16.91;100.00;101404.41;5067965;28;20124;-65
2022/10/26 09:49:09;;;;;;;7.75;2.30;;;;;;;17.08;100.00;101415.16;5049735;28;20027;-66
2022/10/26 09:51:37;;;;;;;8.13;2.35;;;;;;;17.10;100.00;101418.59;5068147;28;20494;-62
2022/10/26 09:54:12;;;;;;;9.50;2.75;;;;;;;17.33;100.00;101420.03;5065114;28;20028;-66
2022/10/26 09:56:38;;;;;;;11.52;2.70;;;;;;;17.51;100.00;101420.84;5049532;28;20060;-65
2022/10/26 09:59:04;;;;;;;9.68;2.33;;;;;;;17.70;100.00;101429.66;5065746;28;20066;-66
2022/10/26 10:01:32;;;;;;;7.90;2.22;;;;;;;17.87;100.00;101437.56;5050248;28;20070;-67
2022/10/26 10:04:15;;;;;;;6.50;2.10;;;;;;;18.00;100.00;101436.91;5049809;28;20491;-66
2022/10/26 10:06:45;;;;;;;6.35;2.17;;;;;;;17.94;100.00;101446.94;5067314;28;20035;-65
2022/10/26 10:09:36;;;;;;;7.43;2.40;;;;;;;18.15;100.00;101449.38;5067203;28;20372;-67
2022/10/26 10:12:02;;;;;;;10.70;2.53;;;;;;;18.28;100.00;101454.91;5063048;28;20086;-65
2022/10/26 10:14:38;;;;;;;13.95;2.83;;;;;;;18.21;100.00;101455.34;5046280;28;20515;-67
2022/10/26 10:17:18;;;;;;;8.82;2.42;;;;;;;18.33;100.00;101457.28;5048421;28;20071;-64
2022/10/26 10:19:43;;;;;;;8.70;2.42;;;;;;;18.31;100.00;101470.72;5048837;28;20082;-65
2022/10/26 10:22:15;;;;;;;6.40;2.25;;;;;;;18.10;100.00;101475.47;5049599;28;20028;-66
2022/10/26 10:24:42;;;;;;;5.00;2.80;;;;;;;18.25;100.00;101476.41;5067866;28;20033;-67
2022/10/26 10:27:16;;;;;;;6.63;2.50;;;;;;;18.27;100.00;101484.34;5067049;28;20534;-65
2022/10/26 10:29:48;;;;;;;8.35;2.42;;;;;;;18.29;100.00;101485.09;5067197;28;20099;-68
2022/10/26 10:32:22;;;;;;;9.13;2.70;;;;;;;18.27;100.00;101501.19;5067447;28;20048;-65
2022/10/26 10:34:48;;;;;;;9.05;2.40;;;;;;;18.09;100.00;101491.53;5066724;28;20070;-65
2022/10/26 10:37:22;;;;;;;10.50;2.55;;;;;;;18.06;100.00;101497.88;5067546;28;20028;-64
2022/10/26 10:39:47;;;;;;;9.38;2.60;;;;;;;17.97;100.00;101501.06;5067121;28;20032;-66
2022/10/26 10:42:17;;;;;;;7.30;2.60;;;;;;;17.90;100.00;101496.06;5049114;28;20331;-64
2022/10/26 10:44:44;;;;;;;9.77;2.78;;;;;;;18.05;100.00;101513.03;5047167;28;20497;-64
2022/10/26 10:47:18;;;;;;;8.80;2.42;;;;;;;18.16;100.00;101508.94;5065669;28;20025;-65
2022/10/26 10:49:53;;;;;;;11.10;2.40;;;;;;;18.27;100.00;101513.69;5066417;28;20393;-65
2022/10/26 10:52:24;;;;;;;5.53;2.10;;;;;;;18.35;100.00;101515.88;5047537;28;20108;-65
2022/10/26 10:54:55;;;;;;;7.45;2.03;;;;;;;18.45;100.00;101519.75;5048376;28;20032;-66
2022/10/26 10:57:29;;;;;;;11.20;2.63;;;;;;;18.41;100.00;101513.75;5045564;28;20028;-65
2022/10/26 11:00:13;;;;;;;6.70;2.40;;;;;;;18.59;100.00;101510.09;5046769;28;20028;-66
2022/10/26 11:03:06;;;;;;;6.35;2.03;;;;;;;18.69;100.00;101509.50;5045819;28;20027;-65
2022/10/26 11:05:56;;;;;;;10.18;2.17;;;;;;;18.86;100.00;101502.31;5065708;28;20035;-63
2022/10/26 11:08:29;;;;;;;7.25;2.40;;;;;;;18.97;100.00;101506.16;5033422;28;20037;-67
2022/10/26 11:11:14;;;;;;;8.93;2.47;;;;;;;19.12;100.00;101517.78;5047353;28;20048;-65
2022/10/26 11:14:17;;;;;;;7.15;2.30;;;;;;;19.16;100.00;101528.19;5064565;28;20048;-62
2022/10/26 11:16:57;;;;;;;7.88;2.22;;;;;;;19.30;100.00;101527.34;5064945;28;20052;-65
2022/10/26 11:19:26;;;;;;;8.45;2.35;;;;;;;19.45;100.00;101535.41;5047087;28;20483;-65
2022/10/26 11:21:54;;;;;;;7.18;2.63;;;;;;;19.54;100.00;101534.00;5064292;28;20040;-62
2022/10/26 11:24:23;;;;;;;15.15;2.92;;;;;;;19.74;100.00;101538.09;5065225;28;20123;-64
2022/10/26 11:26:54;;;;;;;5.25;2.30;;;;;;;19.85;100.00;101550.81;5063707;28;20067;-67
2022/10/26 11:29:45;;;;;;;5.80;2.00;;;;;;;20.02;99.50;101544.41;5064483;28;20032;-67